createdAt,value
2023-02-12T00:02:17.540Z,102498.44
2023-02-12T00:04:44.116Z,102504.44
2023-02-12T00:07:10.805Z,102502.72
2023-02-12T00:09:37.429Z,102504.56
2023-02-12T00:12:04.090Z,102501.94
2023-02-12T00:14:30.970Z,102505.50
2023-02-12T00:16:57.407Z,102508.13
2023-02-12T00:19:24.136Z,102507.31
2023-02-12T00:21:50.985Z,102508.13
2023-02-12T00:24:17.455Z,102509.97
2023-02-12T00:26:43.878Z,102515.13
2023-02-12T00:29:10.966Z,102511.59
2023-02-12T00:31:37.884Z,102509.03
2023-02-12T00:34:04.493Z,102509.13
2023-02-12T00:36:31.927Z,102508.13
2023-02-12T00:38:59.854Z,102509.84
2023-02-12T00:41:26.665Z,102512.41
2023-02-12T00:43:53.344Z,102513.41
2023-02-12T00:46:20.820Z,102515.13
2023-02-12T00:48:48.324Z,102520.50
2023-02-12T00:51:15.023Z,102520.50
2023-02-12T00:53:41.595Z,102528.50
2023-02-12T00:56:08.401Z,102528.56
2023-02-12T00:58:34.966Z,102524.22
2023-02-12T01:01:01.829Z,102529.47
2023-02-12T01:03:28.298Z,102530.28
2023-02-12T01:05:55.179Z,102532.91
2023-02-12T01:08:22.326Z,102533.84
2023-02-12T01:11:04.930Z,102530.28
2023-02-12T01:13:32.616Z,102533.84
2023-02-12T01:16:10.679Z,102534.75
2023-02-12T01:18:38.111Z,102528.56
2023-02-12T01:21:29.452Z,102541.75
2023-02-12T01:23:56.734Z,102532.91
2023-02-12T01:26:24.505Z,102540.75
2023-02-12T01:28:53.867Z,102525.78
2023-02-12T01:31:24.431Z,102531.03
2023-02-12T01:33:53.652Z,102532.75
2023-02-12T01:36:20.349Z,102526.59
2023-02-12T01:38:49.335Z,102535.31
2023-02-12T01:41:19.210Z,102534.34
2023-02-12T01:43:46.671Z,102534.34
2023-02-12T01:46:15.265Z,102537.78
2023-02-12T01:48:46.877Z,102533.34
2023-02-12T01:51:19.969Z,102529.72
2023-02-12T01:53:50.586Z,102529.72
2023-02-12T01:56:18.129Z,102530.63
2023-02-12T01:58:47.304Z,102535.91
2023-02-12T02:01:19.789Z,102534.06
2023-02-12T02:03:52.154Z,102531.34
2023-02-12T02:06:31.366Z,102541.91
2023-02-12T02:09:00.726Z,102525.16
2023-02-12T02:11:45.758Z,102526.00
2023-02-12T02:14:31.374Z,102531.28
2023-02-12T02:17:13.172Z,102533.75
2023-02-12T02:19:55.420Z,102530.13
2023-02-12T02:22:37.938Z,102531.00
2023-02-12T02:25:25.505Z,102530.19
2023-02-12T02:28:15.160Z,102531.91
2023-02-12T02:31:09.159Z,102538.09
2023-02-12T02:34:04.703Z,102543.53
2023-02-12T02:36:58.309Z,102540.09
2023-02-12T02:39:38.910Z,102539.25
2023-02-12T02:42:22.271Z,102546.44
2023-02-12T02:45:00.120Z,102541.25
2023-02-12T02:47:38.061Z,102536.97
2023-02-12T02:50:17.229Z,102541.47
2023-02-12T02:52:50.333Z,102545.88
2023-02-12T02:55:20.610Z,102546.03
2023-02-12T02:57:56.299Z,102554.75
2023-02-12T03:00:37.461Z,102556.56
2023-02-12T03:03:32.218Z,102554.00
2023-02-12T03:06:04.912Z,102552.28
2023-02-12T03:08:42.377Z,102552.28
2023-02-12T03:11:17.410Z,102565.47
2023-02-12T03:13:50.034Z,102562.00
2023-02-12T03:16:27.565Z,102562.97
2023-02-12T03:19:01.761Z,102562.97
2023-02-12T03:21:42.002Z,102565.53
2023-02-12T03:24:19.715Z,102569.03
2023-02-12T03:26:51.081Z,102570.72
2023-02-12T03:29:17.737Z,102576.72
2023-02-12T03:31:54.881Z,102578.50
2023-02-12T03:35:06.288Z,102580.13
2023-02-12T03:37:46.016Z,102578.22
2023-02-12T03:40:34.772Z,102582.56
2023-02-12T03:43:22.979Z,102586.19
2023-02-12T03:46:04.441Z,102587.03
2023-02-12T03:48:42.112Z,102584.41
2023-02-12T03:51:20.817Z,102587.91
2023-02-12T03:53:48.166Z,102584.41
2023-02-12T03:56:20.370Z,102589.75
2023-02-12T03:58:46.828Z,102602.22
2023-02-12T04:01:14.249Z,102596.94
2023-02-12T04:03:41.642Z,102596.94
2023-02-12T04:06:23.015Z,102594.31
2023-02-12T04:08:49.863Z,102603.09
2023-02-12T04:11:34.018Z,102605.00
2023-02-12T04:14:19.250Z,102600.53
2023-02-12T04:16:52.681Z,102605.81
2023-02-12T04:19:33.431Z,102604.16
2023-02-12T04:22:18.082Z,102606.06
2023-02-12T04:25:11.950Z,102605.34
2023-02-12T04:28:07.269Z,102611.44
2023-02-12T04:30:48.429Z,102607.88
2023-02-12T04:33:20.734Z,102619.34
2023-02-12T04:35:55.184Z,102622.88
2023-02-12T04:38:40.299Z,102623.81
2023-02-12T04:41:09.109Z,102615.91
2023-02-12T04:43:37.746Z,102624.69
2023-02-12T04:46:06.691Z,102636.88
2023-02-12T04:48:34.555Z,102631.53
2023-02-12T04:51:02.281Z,102630.59
2023-02-12T04:53:29.144Z,102642.91
2023-02-12T04:55:55.856Z,102638.34
2023-02-12T04:58:22.733Z,102637.34
2023-02-12T05:00:49.201Z,102632.00
2023-02-12T05:03:15.853Z,102639.84
2023-02-12T05:05:42.298Z,102637.13
2023-02-12T05:08:08.765Z,102635.28
2023-02-12T05:10:35.221Z,102637.13
2023-02-12T05:13:01.689Z,102641.31
2023-02-12T05:15:28.248Z,102636.84
2023-02-12T05:17:54.818Z,102638.59
2023-02-12T05:20:21.378Z,102647.31
2023-02-12T05:22:52.009Z,102647.16
2023-02-12T05:25:18.614Z,102643.44
2023-02-12T05:27:45.112Z,102648.63
2023-02-12T05:30:12.305Z,102649.41
2023-02-12T05:32:39.209Z,102648.44
2023-02-12T05:35:06.117Z,102648.25
2023-02-12T05:37:36.580Z,102651.91
2023-02-12T05:40:06.797Z,102654.53
2023-02-12T05:42:33.400Z,102657.09
2023-02-12T05:44:59.916Z,102655.31
2023-02-12T05:47:26.354Z,102658.81
2023-02-12T05:49:52.826Z,102664.22
2023-02-12T05:52:19.459Z,102661.59
2023-02-12T05:54:49.444Z,102662.59
2023-02-12T05:57:16.007Z,102669.69
2023-02-12T05:59:42.474Z,102673.31
2023-02-12T06:02:11.665Z,102663.75
2023-02-12T06:04:38.169Z,102675.28
2023-02-12T06:07:04.717Z,102670.03
2023-02-12T06:09:31.164Z,102671.84
2023-02-12T06:11:57.606Z,102672.94
2023-02-12T06:14:24.319Z,102669.53
2023-02-12T06:16:51.804Z,102670.75
2023-02-12T06:19:19.811Z,102672.53
2023-02-12T06:21:46.753Z,102673.63
2023-02-12T06:24:15.308Z,102676.34
2023-02-12T06:26:42.525Z,102674.53
2023-02-12T06:29:09.466Z,102685.88
2023-02-12T06:31:37.089Z,102676.16
2023-02-12T06:34:06.432Z,102680.59
2023-02-12T06:36:33.758Z,102693.97
2023-02-12T06:39:03.666Z,102687.88
2023-02-12T06:41:30.517Z,102686.97
2023-02-12T06:43:57.033Z,102683.31
2023-02-12T06:46:23.672Z,102690.44
2023-02-12T06:48:54.842Z,102691.44
2023-02-12T06:51:24.376Z,102698.69
2023-02-12T06:53:52.580Z,102697.03
2023-02-12T06:56:20.808Z,102706.03
2023-02-12T06:58:51.975Z,102706.03
2023-02-12T07:01:23.967Z,102706.16
2023-02-12T07:03:53.361Z,102711.50
2023-02-12T07:06:20.371Z,102703.75
2023-02-12T07:08:47.326Z,102714.47
2023-02-12T07:11:13.991Z,102715.66
2023-02-12T07:13:41.290Z,102710.53
2023-02-12T07:16:11.095Z,102715.81
2023-02-12T07:18:39.490Z,102712.19
2023-02-12T07:21:08.470Z,102720.09
2023-02-12T07:23:35.728Z,102721.91
2023-02-12T07:26:05.453Z,102716.66
2023-02-12T07:28:33.963Z,102714.97
2023-02-12T07:31:07.839Z,102715.91
2023-02-12T07:33:34.955Z,102724.63
2023-02-12T07:36:02.206Z,102735.91
2023-02-12T07:38:28.896Z,102730.63
2023-02-12T07:41:14.313Z,102735.00
2023-02-12T07:43:43.334Z,102736.47
2023-02-12T07:46:17.601Z,102737.31
2023-02-12T07:48:45.404Z,102742.59
2023-02-12T07:51:15.601Z,102746.22
2023-02-12T07:53:42.905Z,102745.38
2023-02-12T07:56:12.547Z,102743.03
2023-02-12T08:01:47.095Z,102744.63
2023-02-12T08:04:16.528Z,102759.88
2023-02-12T08:06:45.535Z,102758.03
2023-02-12T08:09:15.597Z,102761.66
2023-02-12T08:11:44.769Z,102751.13
2023-02-12T08:14:13.830Z,102747.50
2023-02-12T08:16:42.224Z,102751.28
2023-02-12T08:19:18.712Z,102749.63
2023-02-12T08:21:48.874Z,102756.75
2023-02-12T08:24:15.497Z,102756.91
2023-02-12T08:26:42.017Z,102754.41
2023-02-12T08:29:12.221Z,102757.41
2023-02-12T08:31:41.599Z,102753.19
2023-02-12T08:34:17.701Z,102756.84
2023-02-12T08:36:44.837Z,102770.03
2023-02-12T08:39:12.237Z,102764.03
2023-02-12T08:41:38.750Z,102772.19
2023-02-12T08:44:05.909Z,102766.25
2023-02-12T08:46:35.071Z,102774.25
2023-02-12T08:49:23.368Z,102767.31
2023-02-12T08:51:52.676Z,102770.38
2023-02-12T08:54:25.242Z,102774.09
2023-02-12T08:56:59.114Z,102776.72
2023-02-12T08:59:27.058Z,102785.66
2023-02-12T09:01:54.358Z,102788.44
2023-02-12T09:04:26.893Z,102793.63
2023-02-12T09:06:54.113Z,102795.44
2023-02-12T09:09:23.606Z,102794.94
2023-02-12T09:11:50.475Z,102798.66
2023-02-12T09:14:18.834Z,102799.50
2023-02-12T09:16:45.467Z,102803.94
2023-02-12T09:19:14.053Z,102805.84
2023-02-12T09:21:40.906Z,102811.78
2023-02-12T09:24:08.342Z,102817.81
2023-02-12T09:26:35.056Z,102815.25
2023-02-12T09:29:04.288Z,102816.97
2023-02-12T09:31:33.555Z,102819.78
2023-02-12T09:34:06.364Z,102820.28
2023-02-12T09:36:33.499Z,102818.97
2023-02-12T09:39:00.895Z,102821.41
2023-02-12T09:41:52.183Z,102823.91
2023-02-12T09:44:27.444Z,102834.31
2023-02-12T09:47:11.698Z,102826.03
2023-02-12T09:49:40.960Z,102836.69
2023-02-12T09:52:15.529Z,102830.84
2023-02-12T09:54:42.361Z,102829.84
2023-02-12T09:57:37.859Z,102818.81
2023-02-12T10:00:18.301Z,102823.22
2023-02-12T10:02:45.091Z,102811.50
2023-02-12T10:05:27.010Z,102830.00
2023-02-12T10:08:12.237Z,102831.91
2023-02-12T10:10:52.946Z,102834.63
2023-02-12T10:13:35.551Z,102829.41
2023-02-12T10:16:25.507Z,102838.97
2023-02-12T10:19:02.935Z,102838.84
2023-02-12T10:21:38.717Z,102839.56
2023-02-12T10:24:51.657Z,102841.22
2023-02-12T10:27:34.694Z,102847.28
2023-02-12T10:30:13.874Z,102846.19
2023-02-12T10:32:43.355Z,102844.50
2023-02-12T10:35:15.800Z,102841.97
2023-02-12T10:38:07.748Z,102836.44
2023-02-12T10:40:38.388Z,102846.94
2023-02-12T10:43:04.922Z,102849.31
2023-02-12T10:45:34.257Z,102845.53
2023-02-12T10:48:08.803Z,102847.16
2023-02-12T10:50:49.252Z,102851.47
2023-02-12T10:53:35.287Z,102848.81
2023-02-12T10:56:20.954Z,102842.81
2023-02-12T10:58:50.487Z,102844.03
2023-02-12T11:01:22.178Z,102845.28
2023-02-12T11:03:48.895Z,102847.84
2023-02-12T11:06:30.688Z,102851.22
2023-02-12T11:08:58.638Z,102838.75
2023-02-12T11:11:33.157Z,102838.75
2023-02-12T11:14:21.067Z,102849.31
2023-02-12T11:16:55.796Z,102843.22
2023-02-12T11:19:28.224Z,102842.50
2023-02-12T11:22:10.326Z,102841.88
2023-02-12T11:24:38.251Z,102834.94
2023-02-12T11:27:17.009Z,102836.69
2023-02-12T11:29:48.883Z,102837.44
2023-02-12T11:32:19.611Z,102834.13
2023-02-12T11:35:18.690Z,102837.59
2023-02-12T11:37:46.976Z,102827.72
2023-02-12T11:40:24.219Z,102826.88
2023-02-12T11:42:58.110Z,102819.00
2023-02-12T11:45:34.543Z,102822.56
2023-02-12T11:48:01.875Z,102813.91
2023-02-12T11:50:31.336Z,102809.50
2023-02-12T11:53:08.080Z,102802.41
2023-02-12T11:55:39.235Z,102809.34
2023-02-12T11:58:17.737Z,102815.38
2023-02-12T12:01:04.468Z,102806.56
2023-02-12T12:04:02.547Z,102808.13
2023-02-12T12:06:35.330Z,102791.38
2023-02-12T12:09:10.983Z,102792.38
2023-02-12T12:11:46.420Z,102798.63
2023-02-12T12:14:27.174Z,102790.94
2023-02-12T12:17:23.537Z,102798.06
2023-02-12T12:20:17.956Z,102799.13
2023-02-12T12:22:54.598Z,102798.19
2023-02-12T12:25:24.264Z,102797.22
2023-02-12T12:28:06.508Z,102791.84
2023-02-12T12:31:10.216Z,102793.72
2023-02-12T12:34:17.115Z,102801.16
2023-02-12T12:37:08.536Z,102790.97
2023-02-12T12:39:54.913Z,102793.47
2023-02-12T12:42:49.594Z,102782.03
2023-02-12T12:46:12.843Z,102787.66
2023-02-12T12:48:50.024Z,102782.50
2023-02-12T12:51:30.599Z,102782.25
2023-02-12T12:54:19.090Z,102776.50
2023-02-12T12:57:05.855Z,102773.91
2023-02-12T12:59:49.681Z,102769.22
2023-02-12T13:02:54.554Z,102767.03
2023-02-12T13:05:48.550Z,102765.56
2023-02-12T13:08:41.535Z,102770.94
2023-02-12T13:11:25.419Z,102761.03
2023-02-12T13:14:02.287Z,102757.56
2023-02-12T13:16:36.471Z,102761.19
2023-02-12T13:19:28.462Z,102755.19
2023-02-12T13:22:09.839Z,102751.75
2023-02-12T13:24:58.224Z,102748.25
2023-02-12T13:27:30.807Z,102749.03
2023-02-12T13:30:06.823Z,102743.66
2023-02-12T13:32:37.996Z,102745.31
2023-02-12T13:35:07.610Z,102750.31
2023-02-12T13:37:48.833Z,102741.47
2023-02-12T13:40:21.649Z,102746.84
2023-02-12T13:42:58.638Z,102745.09
2023-02-12T13:45:38.602Z,102747.81
2023-02-12T13:48:53.298Z,102742.69
2023-02-12T13:51:44.026Z,102742.06
2023-02-12T13:54:37.630Z,102739.31
2023-02-12T13:57:12.251Z,102743.75
2023-02-12T13:59:41.664Z,102740.31
2023-02-12T14:02:29.693Z,102739.75
2023-02-12T14:04:59.865Z,102740.06
2023-02-12T14:07:45.708Z,102742.66
2023-02-12T14:10:41.239Z,102734.34
2023-02-12T14:13:19.481Z,102730.72
2023-02-12T14:15:51.606Z,102728.38
2023-02-12T14:18:32.111Z,102725.09
2023-02-12T14:21:13.856Z,102740.31
2023-02-12T14:23:42.646Z,102727.13
2023-02-12T14:26:12.655Z,102734.16
2023-02-12T14:28:59.174Z,102730.41
2023-02-12T14:31:38.617Z,102740.06
2023-02-12T14:34:05.106Z,102734.84
2023-02-12T14:36:32.094Z,102737.50
2023-02-12T14:39:04.802Z,102748.00
2023-02-12T14:41:37.886Z,102741.78
2023-02-12T14:44:23.229Z,102732.81
2023-02-12T14:46:59.307Z,102741.47
2023-02-12T14:49:36.805Z,102736.00
2023-02-12T14:52:13.863Z,102736.91
2023-02-12T14:54:47.354Z,102736.91
2023-02-12T14:57:36.080Z,102737.59
2023-02-12T15:00:05.653Z,102745.53
2023-02-12T15:02:36.175Z,102737.47
2023-02-12T15:05:13.700Z,102733.09
2023-02-12T15:08:05.169Z,102748.97
2023-02-12T15:10:39.865Z,102747.19
2023-02-12T15:13:30.261Z,102741.03
2023-02-12T15:16:09.440Z,102744.63
2023-02-12T15:18:55.532Z,102742.06
2023-02-12T15:21:31.860Z,102741.28
2023-02-12T15:24:06.011Z,102737.66
2023-02-12T15:26:37.915Z,102742.06
2023-02-12T15:29:05.592Z,102738.38
2023-02-12T15:31:33.660Z,102737.38
2023-02-12T15:34:03.955Z,102732.84
2023-02-12T15:36:33.223Z,102731.06
2023-02-12T15:39:06.450Z,102729.81
2023-02-12T15:41:33.019Z,102728.78
2023-02-12T15:44:01.239Z,102720.63
2023-02-12T15:46:29.697Z,102724.88
2023-02-12T15:48:56.650Z,102723.81
2023-02-12T15:51:35.433Z,102728.91
2023-02-12T15:54:06.345Z,102738.50
2023-02-12T15:56:36.241Z,102733.06
2023-02-12T15:59:04.413Z,102731.94
2023-02-12T16:01:35.699Z,102734.44
2023-02-12T16:04:05.283Z,102743.19
2023-02-12T16:06:36.766Z,102738.56
2023-02-12T16:09:03.793Z,102741.06
2023-02-12T16:11:32.673Z,102740.06
2023-02-12T16:14:24.589Z,102743.56
2023-02-12T16:16:55.849Z,102743.47
2023-02-12T16:19:33.061Z,102743.38
2023-02-12T16:22:05.835Z,102748.53
2023-02-12T16:24:37.265Z,102751.84
2023-02-12T16:27:20.416Z,102753.34
2023-02-12T16:29:50.551Z,102756.66
2023-02-12T16:32:44.984Z,102756.50
2023-02-12T16:35:11.720Z,102752.66
2023-02-12T16:37:38.501Z,102758.69
2023-02-12T16:40:15.437Z,102761.16
2023-02-12T16:42:47.973Z,102753.97
2023-02-12T16:45:27.549Z,102768.09
2023-02-12T16:48:07.541Z,102766.13
2023-02-12T16:50:39.372Z,102771.16
2023-02-12T16:53:22.499Z,102771.91
2023-02-12T16:55:49.836Z,102768.28
2023-02-12T16:58:16.899Z,102770.78
2023-02-12T17:00:43.548Z,102777.78
2023-02-12T17:03:14.885Z,102775.06
2023-02-12T17:05:43.603Z,102772.25
2023-02-12T17:08:14.842Z,102780.16
2023-02-12T17:10:41.712Z,102773.00
2023-02-12T17:13:09.667Z,102774.72
2023-02-12T17:15:57.793Z,102769.38
2023-02-12T17:18:25.097Z,102775.38
2023-02-12T17:20:57.794Z,102780.50
2023-02-12T17:23:25.186Z,102783.06
2023-02-12T17:25:53.559Z,102781.44
2023-02-12T17:28:21.617Z,102789.44
2023-02-12T17:30:49.101Z,102789.44
2023-02-12T17:33:16.375Z,102787.78
2023-02-12T17:35:43.154Z,102789.44
2023-02-12T17:38:09.796Z,102792.06
2023-02-12T17:40:38.326Z,102793.06
2023-02-12T17:43:05.823Z,102791.31
2023-02-12T17:45:34.126Z,102796.84
2023-02-12T17:48:00.777Z,102793.22
2023-02-12T17:50:27.385Z,102801.28
2023-02-12T17:52:54.980Z,102797.84
2023-02-12T17:55:21.691Z,102798.75
2023-02-12T17:57:54.366Z,102807.56
2023-02-12T18:00:22.713Z,102800.34
2023-02-12T18:02:51.977Z,102801.97
2023-02-12T18:05:18.690Z,102798.34
2023-02-12T18:07:46.964Z,102804.34
2023-02-12T18:10:14.285Z,102810.41
2023-02-12T18:12:42.502Z,102801.47
2023-02-12T18:15:10.279Z,102803.13
2023-02-12T18:17:37.030Z,102806.56
2023-02-12T18:20:04.323Z,102810.06
2023-02-12T18:22:33.388Z,102813.63
2023-02-12T18:25:01.283Z,102809.13
2023-02-12T18:27:30.408Z,102805.69
2023-02-12T18:29:58.312Z,102810.06
2023-02-12T18:32:24.978Z,102804.94
2023-02-12T18:34:51.888Z,102810.13
2023-02-12T18:37:18.569Z,102813.63
2023-02-12T18:39:45.174Z,102813.50
2023-02-12T18:42:11.981Z,102815.34
2023-02-12T18:44:41.090Z,102815.25
2023-02-12T18:47:07.602Z,102816.97
2023-02-12T18:49:34.234Z,102817.81
2023-02-12T18:52:02.098Z,102815.19
2023-02-12T18:54:29.084Z,102814.34
2023-02-12T18:56:55.581Z,102813.50
2023-02-12T18:59:22.753Z,102811.84
2023-02-12T19:01:53.085Z,102814.69
2023-02-12T19:04:21.838Z,102813.13
2023-02-12T19:06:50.929Z,102809.56
2023-02-12T19:09:20.288Z,102813.03
2023-02-12T19:11:52.197Z,102813.84
2023-02-12T19:14:20.492Z,102807.66
2023-02-12T19:16:48.326Z,102813.69
2023-02-12T19:19:16.456Z,102810.22
2023-02-12T19:21:43.719Z,102818.13
2023-02-12T19:24:12.788Z,102816.41
2023-02-12T19:26:41.386Z,102816.41
2023-02-12T19:29:08.765Z,102816.50
2023-02-12T19:31:38.338Z,102818.22
2023-02-12T19:34:17.654Z,102813.03
2023-02-12T19:36:45.242Z,102827.13
2023-02-12T19:39:17.653Z,102813.91
2023-02-12T19:41:47.928Z,102806.91
2023-02-12T19:44:21.102Z,102814.19
2023-02-12T19:46:51.574Z,102813.34
2023-02-12T19:49:21.093Z,102806.34
2023-02-12T19:51:48.249Z,102814.34
2023-02-12T19:54:18.458Z,102811.69
2023-02-12T19:56:45.349Z,102809.22
2023-02-12T19:59:19.838Z,102807.56
2023-02-12T20:01:48.436Z,102812.28
2023-02-12T20:04:18.536Z,102812.53
2023-02-12T20:06:49.034Z,102818.81
2023-02-12T20:09:15.658Z,102817.97
2023-02-12T20:11:42.344Z,102821.53
2023-02-12T20:14:11.524Z,102826.81
2023-02-12T20:16:41.539Z,102825.88
2023-02-12T20:19:18.082Z,102828.69
2023-02-12T20:21:45.261Z,102831.31
2023-02-12T20:24:16.114Z,102824.09
2023-02-12T20:26:42.729Z,102829.19
2023-02-12T20:29:09.379Z,102830.84
2023-02-12T20:31:37.468Z,102828.31
2023-02-12T20:34:11.095Z,102834.47
2023-02-12T20:36:40.593Z,102825.75
2023-02-12T20:39:10.829Z,102831.16
2023-02-12T20:41:37.592Z,102830.44
2023-02-12T20:44:06.248Z,102833.16
2023-02-12T20:46:36.089Z,102832.25
2023-02-12T20:49:05.106Z,102833.25
2023-02-12T20:51:32.245Z,102833.16
2023-02-12T20:54:01.630Z,102834.16
2023-02-12T20:56:31.668Z,102827.88
2023-02-12T20:58:58.971Z,102821.69
2023-02-12T21:01:31.522Z,102829.59
2023-02-12T21:04:05.565Z,102834.88
2023-02-12T21:06:33.373Z,102829.69
2023-02-12T21:09:02.662Z,102824.38
2023-02-12T21:11:29.733Z,102824.38
2023-02-12T21:14:02.612Z,102826.16
2023-02-12T21:16:37.227Z,102835.81
2023-02-12T21:19:04.951Z,102835.63
2023-02-12T21:21:34.318Z,102828.47
2023-02-12T21:24:03.163Z,102823.03
2023-02-12T21:26:32.136Z,102826.31
2023-02-12T21:29:00.132Z,102830.44
2023-02-12T21:31:32.507Z,102827.63
2023-02-12T21:34:00.794Z,102827.63
2023-02-12T21:36:36.397Z,102833.66
2023-02-12T21:39:04.949Z,102833.66
2023-02-12T21:41:37.360Z,102822.41
2023-02-12T21:44:10.496Z,102825.25
2023-02-12T21:46:37.221Z,102811.28
2023-02-12T21:49:04.883Z,102822.09
2023-02-12T21:51:40.449Z,102817.03
2023-02-12T21:54:11.522Z,102815.31
2023-02-12T21:56:40.066Z,102807.47
2023-02-12T21:59:08.602Z,102813.81
2023-02-12T22:01:41.626Z,102808.72
2023-02-12T22:04:09.187Z,102808.03
2023-02-12T22:06:45.792Z,102805.41
2023-02-12T22:09:14.324Z,102811.53
2023-02-12T22:11:41.966Z,102809.59
2023-02-12T22:14:12.677Z,102811.25
2023-02-12T22:16:40.944Z,102806.75
2023-02-12T22:19:08.255Z,102810.19
2023-02-12T22:21:37.617Z,102813.81
2023-02-12T22:24:07.420Z,102813.09
2023-02-12T22:26:34.350Z,102811.19
2023-02-12T22:29:06.904Z,102810.19
2023-02-12T22:31:37.229Z,102818.97
2023-02-12T22:34:07.184Z,102812.03
2023-02-12T22:36:35.478Z,102813.03
2023-02-12T22:39:02.281Z,102821.81
2023-02-12T22:41:29.392Z,102819.03
2023-02-12T22:43:59.380Z,102811.19
2023-02-12T22:46:26.489Z,102815.81
2023-02-12T22:48:53.063Z,102811.53
2023-02-12T22:51:26.578Z,102805.41
2023-02-12T22:53:55.142Z,102810.84
2023-02-12T22:56:24.033Z,102813.56
2023-02-12T22:58:55.885Z,102815.31
2023-02-12T23:01:23.398Z,102816.28
2023-02-12T23:03:51.404Z,102827.72
2023-02-12T23:06:20.628Z,102821.56
2023-02-12T23:08:51.930Z,102817.94
2023-02-12T23:11:19.409Z,102816.16
2023-02-12T23:13:46.003Z,102817.03
2023-02-12T23:16:13.089Z,102809.94
2023-02-12T23:18:39.693Z,102803.75
2023-02-12T23:21:06.406Z,102792.28
2023-02-12T23:23:32.964Z,102807.22
2023-02-12T23:25:59.699Z,102791.44
2023-02-12T23:28:26.339Z,102790.53
2023-02-12T23:30:53.453Z,102787.88
2023-02-12T23:33:20.857Z,102793.16
2023-02-12T23:35:48.681Z,102795.81
2023-02-12T23:38:17.640Z,102790.53
2023-02-12T23:40:44.996Z,102794.94
2023-02-12T23:43:11.541Z,102792.28
2023-02-12T23:45:38.304Z,102791.38
2023-02-12T23:48:06.001Z,102788.56
2023-02-12T23:50:34.086Z,102797.09
2023-02-12T23:53:00.719Z,102793.34
2023-02-12T23:55:27.877Z,102791.56
2023-02-12T23:57:54.402Z,102793.34
